Time;durP1;ratioP1;P1;durP2;ratioP2;P2;SDS_P1;SDS_P2;PMS_P1;PMS_P2;Temp;Humidity;BMP_temperature;BMP_pressure;BME280_temperature;BME280_humidity;BME280_pressure;Samples;Min_cycle;Max_cycle;Signal;HPM_P1;HPM_P2
2022/12/03 00:02:41;;;;;;;26.13;15.60;;;;;;;8.52;60.67;98844.19;7001076;28;20296;-80
2022/12/03 00:06:03;;;;;;;22.00;16.27;;;;;;;8.69;60.58;98842.91;7000390;28;20256;-80
2022/12/03 00:09:25;;;;;;;19.23;14.40;;;;;;;7.78;61.83;98855.25;6999688;28;20420;-80
2022/12/03 00:12:48;;;;;;;20.10;14.10;;;;;;;8.29;61.10;98836.31;6998652;28;20758;-80
2022/12/03 00:16:09;;;;;;;20.77;15.17;;;;;;;8.70;60.36;98849.94;7000269;28;20571;-80
2022/12/03 00:19:31;;;;;;;22.80;16.27;;;;;;;8.85;60.04;98839.97;6999956;28;20367;-80
2022/12/03 00:22:52;;;;;;;22.13;14.07;;;;;;;8.93;59.50;98864.03;7000995;28;20295;-80
2022/12/03 00:26:14;;;;;;;21.30;14.80;;;;;;;8.31;59.50;98772.47;7000585;28;20801;-80
2022/12/03 00:29:36;;;;;;;21.47;14.67;;;;;;;8.82;59.06;98843.03;7000428;28;20260;-80
2022/12/03 00:32:58;;;;;;;21.23;14.30;;;;;;;8.46;59.55;98844.94;7000896;28;20267;-80
2022/12/03 00:36:21;;;;;;;20.90;14.20;;;;;;;8.84;59.00;98841.00;6998733;28;20236;-80
2022/12/03 00:39:42;;;;;;;21.80;13.83;;;;;;;8.78;59.66;98847.97;7000438;28;20323;-80
2022/12/03 00:43:04;;;;;;;21.53;14.13;;;;;;;8.39;59.78;98776.88;7002566;28;20228;-80
2022/12/03 00:46:27;;;;;;;26.23;15.97;;;;;;;8.77;60.44;98840.94;7005806;28;20719;-80
2022/12/03 00:49:48;;;;;;;22.07;15.27;;;;;;;8.66;60.44;98851.38;7006182;28;20314;-80
2022/12/03 00:53:10;;;;;;;19.53;13.97;;;;;;;8.77;59.59;98856.25;7005794;28;20313;-80
2022/12/03 00:56:31;;;;;;;19.57;14.07;;;;;;;8.27;60.18;98842.88;7005399;28;20298;-80
2022/12/03 00:59:53;;;;;;;16.77;13.13;;;;;;;8.71;60.13;98865.88;7005972;28;20312;-80
2022/12/03 01:03:15;;;;;;;18.77;13.93;;;;;;;8.77;59.99;98857.06;7005668;28;20298;-80
2022/12/03 01:06:37;;;;;;;21.20;14.60;;;;;;;8.29;60.60;98856.94;7004737;28;20236;-80
2022/12/03 01:09:58;;;;;;;22.23;14.73;;;;;;;8.83;60.40;98855.47;7005392;28;20207;-80
2022/12/03 01:13:20;;;;;;;19.40;13.10;;;;;;;8.03;61.12;98853.94;7004484;28;20345;-80
2022/12/03 01:16:42;;;;;;;19.47;12.97;;;;;;;8.53;60.42;98859.28;7004214;28;20289;-80
2022/12/03 01:20:07;;;;;;;20.33;13.40;;;;;;;8.83;59.83;98858.97;7004580;28;20293;-80
2022/12/03 01:23:29;;;;;;;19.67;13.90;;;;;;;8.88;60.38;98856.53;7005366;28;20322;-79
2022/12/03 01:26:50;;;;;;;21.90;14.30;;;;;;;8.73;60.29;98869.22;7004531;28;20304;-80
2022/12/03 01:30:13;;;;;;;21.67;13.97;;;;;;;8.79;60.31;98857.69;7004823;28;20206;-79
2022/12/03 01:33:34;;;;;;;20.37;13.90;;;;;;;8.92;59.75;98871.28;7003334;28;20285;-80
2022/12/03 01:36:57;;;;;;;19.53;14.13;;;;;;;8.84;59.91;98865.19;7003998;28;20248;-80
2022/12/03 01:40:19;;;;;;;19.40;13.80;;;;;;;8.51;60.27;98859.50;7004666;28;20301;-79
2022/12/03 01:43:41;;;;;;;23.67;15.57;;;;;;;8.76;60.33;98866.16;7003739;28;20207;-79
2022/12/03 01:47:05;;;;;;;21.10;13.53;;;;;;;8.86;60.04;98860.44;7002898;28;20318;-80
2022/12/03 01:50:29;;;;;;;19.73;14.47;;;;;;;8.73;60.52;98860.31;7003109;28;20290;-80
2022/12/03 01:53:52;;;;;;;20.23;13.13;;;;;;;8.85;60.06;98867.66;7002773;28;20290;-80
2022/12/03 01:57:20;;;;;;;19.97;14.37;;;;;;;8.72;60.14;98859.47;6997603;28;20379;-80
2022/12/03 02:00:42;;;;;;;22.13;15.07;;;;;;;8.68;60.55;98868.97;7003770;28;20235;-79
2022/12/03 02:04:03;;;;;;;20.73;14.83;;;;;;;8.65;60.91;98863.97;7003751;28;20249;-80
2022/12/03 02:07:26;;;;;;;19.30;13.80;;;;;;;8.44;61.90;98872.00;7003023;28;20314;-79
2022/12/03 02:10:49;;;;;;;24.03;16.47;;;;;;;9.01;60.17;98875.47;7003710;28;20300;-80
2022/12/03 02:14:12;;;;;;;24.03;15.20;;;;;;;9.03;59.61;98850.06;7003508;28;20257;-79
2022/12/03 02:17:34;;;;;;;24.63;16.53;;;;;;;9.24;59.71;98871.56;6979423;28;20377;-80
2022/12/03 02:21:00;;;;;;;26.53;15.63;;;;;;;9.03;59.56;98874.25;6975923;28;20346;-80
2022/12/03 02:24:26;;;;;;;23.67;15.30;;;;;;;9.34;58.85;98857.75;6976131;28;20342;-80
2022/12/03 02:27:49;;;;;;;21.07;16.17;;;;;;;9.23;58.95;98860.97;6974826;28;20293;-80
2022/12/03 02:31:11;;;;;;;18.67;14.83;;;;;;;9.05;58.87;98860.63;6975274;28;20419;-80
2022/12/03 02:34:35;;;;;;;23.67;15.07;;;;;;;8.93;60.01;98854.94;6974154;28;20320;-80
2022/12/03 02:37:59;;;;;;;23.77;15.40;;;;;;;8.72;60.65;98864.84;6974550;28;20723;-79
2022/12/03 02:45:03;;;;;;;23.23;15.00;;;;;;;9.02;59.43;98871.75;6974714;28;20200;-80
2022/12/03 02:48:27;;;;;;;24.43;15.43;;;;;;;8.63;60.29;98868.72;6975044;28;20264;-80
2022/12/03 02:51:48;;;;;;;23.13;15.90;;;;;;;8.93;60.24;98870.25;6975167;28;20366;-80
2022/12/03 02:55:11;;;;;;;23.23;15.20;;;;;;;9.04;59.49;98843.66;6973880;28;20352;-80
2022/12/03 02:58:32;;;;;;;23.97;15.57;;;;;;;8.60;60.78;98869.09;6974800;28;20227;-80
2022/12/03 03:01:55;;;;;;;23.50;15.47;;;;;;;8.75;60.30;98872.56;6974956;28;20236;-79
2022/12/03 03:05:19;;;;;;;23.80;15.83;;;;;;;9.07;59.53;98868.50;6982968;28;20281;-80
2022/12/03 03:08:41;;;;;;;23.47;15.67;;;;;;;9.28;59.11;98859.34;7029720;28;20705;-80
2022/12/03 03:12:03;;;;;;;24.33;15.90;;;;;;;9.07;59.37;98871.19;7028285;28;20230;-80
2022/12/03 03:15:25;;;;;;;23.67;15.33;;;;;;;8.74;59.31;98857.47;7016822;28;20297;-80
2022/12/03 03:18:48;;;;;;;22.80;15.70;;;;;;;9.02;59.16;98863.69;6973828;28;20709;-80
2022/12/03 03:22:10;;;;;;;23.77;16.00;;;;;;;9.16;58.77;98871.69;6974644;28;20296;-80
2022/12/03 03:25:32;;;;;;;22.67;15.07;;;;;;;8.96;58.95;98860.97;6973871;28;20219;-80
2022/12/03 03:28:53;;;;;;;20.93;14.93;;;;;;;9.22;58.40;98853.94;6975555;28;20331;-82
2022/12/03 03:32:15;;;;;;;24.07;16.30;;;;;;;9.41;58.01;98855.94;6975109;28;20320;-81
2022/12/03 03:35:38;;;;;;;22.90;15.47;;;;;;;9.19;58.49;98846.25;6986866;28;20230;-82
2022/12/03 03:39:00;;;;;;;26.63;16.00;;;;;;;8.26;60.58;98860.84;7030942;28;20262;-81
2022/12/03 03:42:21;;;;;;;26.53;16.63;;;;;;;8.74;59.83;98862.84;7030716;28;20349;-81
2022/12/03 03:45:43;;;;;;;24.90;15.47;;;;;;;8.98;59.11;98844.44;7015195;28;20303;-81
2022/12/03 03:49:05;;;;;;;21.77;14.37;;;;;;;9.19;58.56;98846.25;6974833;28;20289;-81
2022/12/03 03:52:29;;;;;;;22.70;17.00;;;;;;;9.25;58.58;98848.16;6974662;28;20252;-81
2022/12/03 03:55:50;;;;;;;27.33;16.73;;;;;;;8.69;59.74;98846.44;6973863;28;20223;-81
2022/12/03 03:59:13;;;;;;;27.10;16.50;;;;;;;8.14;61.14;98819.34;6992001;28;20314;-81
2022/12/03 04:02:34;;;;;;;26.97;18.40;;;;;;;8.90;61.01;98851.78;7001775;28;20297;-80
2022/12/03 04:05:56;;;;;;;27.80;17.53;;;;;;;9.12;59.09;98845.38;7001878;28;20272;-81
2022/12/03 04:09:19;;;;;;;27.70;16.77;;;;;;;9.36;58.12;98832.31;7001604;28;20321;-81
2022/12/03 04:12:54;;;;;;;24.27;15.50;;;;;;;9.13;58.41;98806.69;7002078;28;20318;-81
2022/12/03 04:16:16;;;;;;;24.93;16.57;;;;;;;9.32;58.02;98824.81;7001800;28;20203;-81
2022/12/03 04:19:37;;;;;;;29.27;16.87;;;;;;;8.91;58.63;98809.63;7000937;28;20367;-81
2022/12/03 04:22:58;;;;;;;26.80;16.00;;;;;;;9.33;59.04;98837.28;7002324;28;20705;-81
2022/12/03 04:30:00;;;;;;;26.87;15.93;;;;;;;9.05;58.48;98809.53;7001470;28;20230;-81
2022/12/03 04:37:00;;;;;;;23.73;15.93;;;;;;;9.29;57.91;98836.84;7000647;28;20679;-81
2022/12/03 04:47:53;;;;;;;30.37;17.43;;;;;;;8.68;59.94;98807.16;6922501;28;20237;-81
2022/12/03 04:51:14;;;;;;;29.03;16.87;;;;;;;8.81;60.25;98841.38;7001166;28;20287;-81
2022/12/03 04:54:36;;;;;;;28.80;17.30;;;;;;;9.06;59.65;98835.41;7001307;28;20677;-81
2022/12/03 04:57:57;;;;;;;26.10;17.13;;;;;;;9.27;58.65;98832.66;7000377;28;20757;-81
2022/12/03 05:01:20;;;;;;;27.23;16.30;;;;;;;9.11;58.98;98833.78;7000923;28;20350;-80
2022/12/03 05:04:42;;;;;;;28.97;16.53;;;;;;;9.46;58.23;98837.34;7001186;28;20294;-80
2022/12/03 05:08:03;;;;;;;28.17;16.03;;;;;;;9.42;58.18;98828.84;7004979;28;20317;-81
2022/12/03 05:11:25;;;;;;;26.57;16.77;;;;;;;9.32;58.21;98824.81;7000232;28;20241;-81
2022/12/03 05:14:46;;;;;;;26.00;16.87;;;;;;;9.11;58.68;98811.44;6999947;28;20319;-82
2022/12/03 05:18:09;;;;;;;27.83;15.77;;;;;;;8.49;59.75;98831.97;7000499;28;20319;-81
2022/12/03 05:21:31;;;;;;;30.03;17.27;;;;;;;8.73;59.71;98803.88;7000177;28;20316;-81
2022/12/03 05:24:52;;;;;;;27.30;17.70;;;;;;;9.13;59.12;98819.31;7000558;28;20643;-82
2022/12/03 05:28:14;;;;;;;26.60;16.57;;;;;;;9.00;58.32;98828.09;7000984;28;20319;-81
2022/12/03 05:31:35;;;;;;;26.30;16.70;;;;;;;8.24;60.15;98829.84;7004425;28;20293;-81
2022/12/03 05:34:58;;;;;;;34.67;18.00;;;;;;;7.62;61.84;98826.78;7002901;28;20760;-81
2022/12/03 05:38:20;;;;;;;28.93;18.00;;;;;;;7.65;62.18;98820.19;7004841;28;20284;-81
2022/12/03 05:45:21;;;;;;;29.37;17.33;;;;;;;7.38;63.29;98807.44;6978944;28;20200;-79
2022/12/03 05:48:42;;;;;;;31.40;19.17;;;;;;;6.87;64.80;98794.91;6975987;28;20310;-79
2022/12/03 05:52:05;;;;;;;31.10;18.43;;;;;;;6.82;66.11;98808.84;6976204;28;20303;-79
2022/12/03 05:55:27;;;;;;;34.40;18.63;;;;;;;6.82;66.78;98808.84;6975115;28;20298;-79
2022/12/03 05:58:49;;;;;;;33.63;19.33;;;;;;;7.16;64.83;98821.75;6986119;28;20360;-81
2022/12/03 06:02:10;;;;;;;33.20;19.37;;;;;;;7.14;64.50;98803.16;7002978;28;20266;-79
2022/12/03 06:05:33;;;;;;;35.03;19.10;;;;;;;7.27;64.02;98783.75;7002897;28;20207;-78
2022/12/03 06:08:55;;;;;;;33.70;20.27;;;;;;;7.43;63.79;98802.34;7002335;28;20318;-79
2022/12/03 06:12:17;;;;;;;33.67;18.57;;;;;;;7.69;63.50;98829.53;7001540;28;20352;-79
2022/12/03 06:15:38;;;;;;;33.73;19.63;;;;;;;7.35;63.27;98824.72;7001829;28;20336;-79
2022/12/03 06:19:00;;;;;;;34.60;19.87;;;;;;;7.07;64.81;98810.28;7003816;28;20369;-79
2022/12/03 06:22:21;;;;;;;38.10;20.97;;;;;;;7.11;65.32;98806.22;7003365;28;20669;-79
2022/12/03 06:25:44;;;;;;;35.90;18.63;;;;;;;7.03;66.00;98809.00;7002108;28;20294;-79
2022/12/03 06:29:06;;;;;;;33.80;19.23;;;;;;;7.27;65.00;98815.94;7002227;28;20359;-79
2022/12/03 06:32:27;;;;;;;35.23;19.87;;;;;;;7.14;65.82;98827.28;7002600;28;20253;-79
2022/12/03 06:35:49;;;;;;;34.03;21.13;;;;;;;7.13;64.76;98824.81;6976024;28;20298;-79
2022/12/03 06:39:10;;;;;;;34.43;19.47;;;;;;;7.59;64.07;98832.50;6973821;28;20318;-79
2022/12/03 06:42:33;;;;;;;37.73;19.83;;;;;;;7.29;64.57;98836.19;6972654;28;20211;-79
2022/12/03 06:57:36;;;;;;;40.30;20.97;;;;;;;7.64;62.86;98815.84;6985079;28;20238;-82
2022/12/03 07:01:12;;;;;;;38.40;19.73;;;;;;;7.82;63.20;98860.06;6945751;28;20208;-82
2022/12/03 07:04:34;;;;;;;39.23;20.20;;;;;;;8.08;62.93;98857.69;6998329;28;20292;-82
2022/12/03 07:07:55;;;;;;;35.23;20.03;;;;;;;8.09;62.31;98845.97;7008127;28;20238;-85
2022/12/03 07:11:38;;;;;;;41.50;21.37;;;;;;;7.63;63.27;98841.00;7007008;28;20260;-80
2022/12/03 07:15:08;;;;;;;41.43;20.53;;;;;;;6.78;64.28;98710.25;7000348;28;20223;-81
2022/12/03 07:18:30;;;;;;;36.60;20.70;;;;;;;7.22;64.14;98762.03;7001222;28;20260;-80
2022/12/03 07:21:51;;;;;;;40.83;20.73;;;;;;;7.49;64.29;98821.22;7000545;28;20207;-80
2022/12/03 07:25:14;;;;;;;37.47;21.63;;;;;;;7.63;63.97;98819.53;6999541;28;20202;-80
2022/12/03 07:28:37;;;;;;;34.73;19.77;;;;;;;7.34;64.74;98815.03;6994148;28;20717;-80
2022/12/03 07:32:02;;;;;;;39.57;21.80;;;;;;;7.15;66.15;98823.63;6984235;28;20537;-80
2022/12/03 07:35:26;;;;;;;37.37;19.97;;;;;;;7.61;64.63;98822.41;6971467;28;20224;-80
2022/12/03 07:38:47;;;;;;;40.00;21.73;;;;;;;7.69;65.41;98832.22;6972909;28;20305;-80
2022/12/03 07:42:09;;;;;;;38.60;21.60;;;;;;;7.84;63.52;98823.13;6974521;28;20226;-80
2022/12/03 07:45:30;;;;;;;37.60;21.13;;;;;;;7.81;63.66;98782.41;6974488;28;20237;-80
2022/12/03 07:48:53;;;;;;;38.50;21.00;;;;;;;7.78;64.29;98837.28;6992405;28;20359;-80
2022/12/03 07:52:15;;;;;;;34.83;20.67;;;;;;;7.68;63.73;98835.91;7001930;28;20206;-80
2022/12/03 07:55:36;;;;;;;40.33;21.63;;;;;;;8.12;63.53;98829.47;6999916;28;20765;-80
2022/12/03 07:58:58;;;;;;;33.93;19.83;;;;;;;7.73;63.14;98834.31;6999827;28;20274;-79
2022/12/03 08:02:19;;;;;;;34.37;19.17;;;;;;;8.12;61.78;98826.78;6999856;28;20296;-78
2022/12/03 08:05:42;;;;;;;30.23;17.30;;;;;;;8.73;60.14;98826.19;7000916;28;20294;-81
2022/12/03 08:09:04;;;;;;;34.23;20.83;;;;;;;9.01;58.59;98828.94;7000875;28;20265;-80
2022/12/03 08:12:38;;;;;;;30.23;17.80;;;;;;;8.12;60.10;98815.19;6999271;28;20304;-79
2022/12/03 08:16:02;;;;;;;28.83;17.03;;;;;;;8.55;58.30;98835.75;6993922;28;20246;-80
2022/12/03 08:19:24;;;;;;;27.47;16.60;;;;;;;8.12;58.58;98844.72;6974657;28;20353;-79
2022/12/03 08:22:49;;;;;;;26.20;16.03;;;;;;;7.96;58.85;98836.91;6995889;28;20352;-79
2022/12/03 08:26:17;;;;;;;28.23;16.93;;;;;;;8.37;58.28;98838.06;6994688;28;20294;-80
2022/12/03 08:29:39;;;;;;;26.23;15.30;;;;;;;8.77;57.21;98837.44;7000730;28;20229;-79
2022/12/03 08:33:00;;;;;;;27.03;15.83;;;;;;;8.64;56.92;98822.00;6992203;28;20263;-79
2022/12/03 08:36:24;;;;;;;28.97;15.83;;;;;;;8.49;57.05;98820.41;7000653;28;20275;-79
2022/12/03 08:39:48;;;;;;;28.03;17.00;;;;;;;8.18;57.28;98803.69;6998466;28;20383;-79
2022/12/03 08:43:13;;;;;;;25.00;15.93;;;;;;;8.33;56.32;98816.09;7000974;28;20209;-79
2022/12/03 08:46:35;;;;;;;29.97;16.63;;;;;;;8.72;56.92;98832.59;7000916;28;20203;-79
2022/12/03 08:50:01;;;;;;;26.97;16.17;;;;;;;9.07;55.78;98831.66;7001716;28;20640;-79
2022/12/03 08:53:32;;;;;;;26.60;16.17;;;;;;;9.17;55.08;98816.03;7000864;28;20224;-79
2022/12/03 08:56:55;;;;;;;27.30;16.87;;;;;;;9.33;54.31;98832.69;7001320;28;20313;-80
2022/12/03 09:00:20;;;;;;;27.63;16.07;;;;;;;9.20;54.54;98835.31;7001357;28;20239;-79
2022/12/03 09:03:47;;;;;;;24.63;14.73;;;;;;;8.93;54.33;98809.22;7000667;28;20348;-79
2022/12/03 09:07:09;;;;;;;24.97;15.60;;;;;;;9.17;54.73;98838.38;6989298;28;20223;-79
2022/12/03 09:10:30;;;;;;;24.23;14.83;;;;;;;8.95;54.57;98840.47;6992074;28;20226;-80
2022/12/03 09:13:53;;;;;;;26.43;17.03;;;;;;;8.43;55.77;98837.28;7003844;28;20313;-80
2022/12/03 09:17:15;;;;;;;25.30;16.27;;;;;;;8.54;56.07;98820.66;6997981;28;20289;-80
2022/12/03 09:20:36;;;;;;;23.57;15.77;;;;;;;8.51;55.87;98838.00;7005555;28;20199;-79
2022/12/03 09:23:58;;;;;;;22.10;14.90;;;;;;;8.63;56.13;98841.00;7005556;28;20297;-79
2022/12/03 09:27:21;;;;;;;24.30;15.47;;;;;;;8.60;54.95;98836.03;6992611;28;20318;-79
2022/12/03 09:30:44;;;;;;;23.20;14.70;;;;;;;8.54;55.11;98842.16;6999405;28;20211;-79
2022/12/03 09:34:06;;;;;;;22.27;14.07;;;;;;;8.92;54.40;98827.41;6998361;28;20271;-79
2022/12/03 09:37:27;;;;;;;21.27;14.03;;;;;;;9.17;53.57;98830.28;6977639;28;20359;-79
2022/12/03 09:40:49;;;;;;;25.43;16.27;;;;;;;9.15;53.77;98818.09;6977012;28;20258;-80
2022/12/03 09:44:11;;;;;;;23.37;15.27;;;;;;;8.88;53.87;98794.72;6977143;28;20239;-80
2022/12/03 09:47:34;;;;;;;21.77;14.57;;;;;;;9.07;53.12;98787.81;6983109;28;20260;-80
2022/12/03 09:50:56;;;;;;;26.13;15.13;;;;;;;8.96;53.34;98799.13;6979626;28;20235;-80
2022/12/03 09:54:23;;;;;;;24.83;17.03;;;;;;;8.93;53.79;98797.66;6979345;28;20283;-81
2022/12/03 09:57:45;;;;;;;28.10;16.20;;;;;;;8.47;55.10;98798.25;6979632;28;20273;-81
2022/12/03 10:01:11;;;;;;;23.80;15.30;;;;;;;8.94;55.03;98823.50;6977383;28;20661;-82
2022/12/03 10:04:34;;;;;;;24.70;16.17;;;;;;;8.78;55.70;98796.06;6986513;28;20187;-83
2022/12/03 10:07:58;;;;;;;23.83;16.27;;;;;;;9.32;53.94;98824.81;7002153;28;20229;-80
2022/12/03 10:11:21;;;;;;;23.03;14.83;;;;;;;9.34;53.78;98815.53;7006924;28;20246;-79
2022/12/03 10:14:43;;;;;;;21.00;14.63;;;;;;;8.92;55.30;98768.25;7007317;28;20242;-80
2022/12/03 10:18:16;;;;;;;25.53;15.80;;;;;;;8.46;56.86;98828.81;7013110;28;20226;-84
2022/12/03 10:21:39;;;;;;;25.10;15.87;;;;;;;8.85;56.34;98826.53;7006348;28;20204;-84
2022/12/03 10:25:06;;;;;;;25.93;15.50;;;;;;;8.81;55.80;98819.88;6983032;28;20815;-86
2022/12/03 10:28:31;;;;;;;24.67;16.13;;;;;;;8.73;55.42;98795.81;6984887;28;20324;-84
2022/12/03 10:31:55;;;;;;;23.37;15.67;;;;;;;8.13;56.95;98815.00;7007928;28;20212;-83
2022/12/03 10:35:18;;;;;;;25.07;15.93;;;;;;;7.59;58.16;98816.41;7006960;28;20260;-81
2022/12/03 10:38:41;;;;;;;26.23;16.17;;;;;;;7.28;59.99;98812.22;6992495;28;20226;-81
2022/12/03 10:42:14;;;;;;;27.60;15.40;;;;;;;7.51;58.85;98789.69;6977030;28;20245;-79
2022/12/03 10:45:36;;;;;;;23.33;14.50;;;;;;;8.21;56.34;98780.03;6976181;28;20192;-78
2022/12/03 10:49:08;;;;;;;20.87;14.47;;;;;;;7.78;55.68;98793.53;6975625;28;20567;-80
2022/12/03 10:52:30;;;;;;;18.60;12.50;;;;;;;8.12;55.96;98796.41;6976739;28;20249;-83
2022/12/03 10:55:57;;;;;;;22.60;14.10;;;;;;;8.41;54.22;98791.78;6990535;28;20325;-80
2022/12/03 10:59:21;;;;;;;19.10;12.33;;;;;;;8.62;54.34;98780.22;7003722;28;20230;-83
2022/12/03 11:02:42;;;;;;;18.73;11.40;;;;;;;8.23;54.24;98751.13;7003703;28;20238;-81
2022/12/03 11:06:04;;;;;;;19.60;13.03;;;;;;;8.39;54.52;98771.53;6981782;28;20270;-81
2022/12/03 11:09:28;;;;;;;17.67;11.47;;;;;;;8.52;53.70;98750.97;7002820;28;20310;-82
2022/12/03 11:13:29;;;;;;;18.93;11.67;;;;;;;7.65;54.86;98770.03;6997426;28;20210;-82
2022/12/03 11:17:06;;;;;;;19.33;12.07;;;;;;;8.28;55.26;98774.72;6978575;28;20556;-82
2022/12/03 11:21:02;;;;;;;17.07;11.47;;;;;;;8.76;54.19;98749.72;6974724;28;20660;-81
2022/12/03 11:24:23;;;;;;;18.20;11.97;;;;;;;8.75;52.51;98754.28;6893004;28;20259;-85
2022/12/03 11:28:24;;;;;;;16.80;11.33;;;;;;;8.48;54.78;98747.00;6903507;28;20285;-82
2022/12/03 11:31:47;;;;;;;18.47;11.17;;;;;;;8.10;54.98;98702.63;6978933;28;20210;-82
2022/12/03 11:35:11;;;;;;;18.23;11.27;;;;;;;8.79;53.40;98763.59;6989424;28;20296;-83
2022/12/03 11:38:55;;;;;;;18.07;11.20;;;;;;;8.96;53.65;98743.47;7000027;28;20258;-82
2022/12/03 11:42:32;;;;;;;19.03;12.57;;;;;;;8.58;53.02;98742.16;6995501;28;20616;-82
2022/12/03 11:45:54;;;;;;;18.27;10.90;;;;;;;8.47;54.29;98755.25;7000903;28;20677;-82
2022/12/03 11:49:38;;;;;;;18.03;11.70;;;;;;;8.66;53.57;98731.25;7001526;28;20723;-80
2022/12/03 11:53:02;;;;;;;18.40;12.00;;;;;;;9.02;52.82;98728.41;6998286;28;20861;-80
2022/12/03 11:56:25;;;;;;;18.33;11.47;;;;;;;8.78;52.77;98693.94;6975294;28;20320;-81
2022/12/03 12:00:00;;;;;;;22.03;12.30;;;;;;;8.93;52.94;98721.53;6989933;28;20255;-84
2022/12/03 12:03:32;;;;;;;19.43;12.27;;;;;;;9.18;52.88;98723.56;7007817;28;20194;-84
2022/12/03 12:06:56;;;;;;;22.07;13.43;;;;;;;9.27;52.19;98714.31;7008668;28;20199;-84
2022/12/03 12:10:43;;;;;;;19.03;12.63;;;;;;;9.38;53.01;98703.78;7009145;28;20212;-81
2022/12/03 12:14:08;;;;;;;18.33;12.20;;;;;;;9.34;52.35;98701.72;6997793;28;20318;-82
2022/12/03 12:17:47;;;;;;;19.97;12.47;;;;;;;9.44;52.35;98702.16;6974159;28;20310;-82
2022/12/03 12:21:46;;;;;;;18.63;11.17;;;;;;;9.37;51.61;98695.91;6989238;28;20208;-80
2022/12/03 12:25:37;;;;;;;20.00;12.60;;;;;;;8.48;53.37;98700.53;6988228;28;20199;-80
2022/12/03 12:28:59;;;;;;;20.07;12.97;;;;;;;8.11;54.79;98688.19;6993504;28;20228;-80
2022/12/03 12:32:24;;;;;;;23.20;12.77;;;;;;;7.77;57.06;98712.19;6985447;28;20215;-81
2022/12/03 12:35:45;;;;;;;21.30;12.77;;;;;;;8.53;54.43;98685.47;6988270;28;20319;-81
2022/12/03 12:39:08;;;;;;;21.47;12.77;;;;;;;8.42;54.13;98677.13;6993622;28;20338;-80
2022/12/03 12:42:33;;;;;;;20.17;12.30;;;;;;;9.07;53.70;98684.59;7005693;28;20684;-81
2022/12/03 12:45:56;;;;;;;20.50;12.73;;;;;;;9.33;52.61;98689.28;7006569;28;20284;-79
2022/12/03 12:49:20;;;;;;;17.47;12.00;;;;;;;9.30;52.39;98687.00;6994456;28;20232;-79
2022/12/03 12:52:51;;;;;;;21.07;12.83;;;;;;;8.94;53.21;98675.63;7001942;28;20222;-80
2022/12/03 12:56:17;;;;;;;20.60;12.73;;;;;;;9.03;52.65;98663.69;6983856;28;20322;-80
2022/12/03 12:59:42;;;;;;;21.20;12.23;;;;;;;9.02;53.99;98666.56;6994042;28;20261;-79
2022/12/03 13:03:38;;;;;;;22.30;13.73;;;;;;;8.24;53.94;98585.47;6976894;28;20684;-80
2022/12/03 13:07:02;;;;;;;20.83;13.83;;;;;;;8.05;56.04;98661.25;6970264;28;20218;-79
2022/12/03 13:10:33;;;;;;;22.30;13.23;;;;;;;8.18;56.13;98653.31;7004362;28;20288;-79
2022/12/03 13:13:55;;;;;;;24.47;13.43;;;;;;;8.39;54.52;98656.00;7006758;28;21777;-80
2022/12/03 13:17:22;;;;;;;21.33;13.50;;;;;;;8.87;52.99;98652.41;7031585;28;20437;-79
2022/12/03 13:20:43;;;;;;;20.43;12.67;;;;;;;8.25;53.99;98665.00;6991069;28;20196;-79
2022/12/03 13:24:26;;;;;;;21.30;12.70;;;;;;;7.57;56.45;98668.22;7002339;28;20332;-79
2022/12/03 13:27:47;;;;;;;20.00;12.63;;;;;;;7.71;57.10;98661.16;6989129;28;20304;-79
2022/12/03 13:31:22;;;;;;;20.47;12.13;;;;;;;7.65;57.05;98665.41;6983398;28;20685;-79
2022/12/03 13:34:45;;;;;;;24.17;13.43;;;;;;;7.53;56.70;98672.28;7004119;28;20230;-80
2022/12/03 13:38:10;;;;;;;23.00;13.33;;;;;;;7.56;56.75;98657.66;6990993;28;20234;-79
2022/12/03 13:45:30;;;;;;;25.67;13.23;;;;;;;8.66;54.97;98655.19;6980661;28;20267;-83
2022/12/03 13:48:52;;;;;;;24.73;13.20;;;;;;;8.22;55.46;98649.25;6980364;28;20227;-79
2022/12/03 13:52:17;;;;;;;25.53;13.57;;;;;;;8.76;54.66;98653.81;6980247;28;20309;-80
2022/12/03 13:55:40;;;;;;;22.50;13.43;;;;;;;8.31;56.12;98658.84;6978096;28;20322;-80
2022/12/03 13:59:03;;;;;;;21.03;12.27;;;;;;;8.80;54.41;98652.38;6993187;28;20327;-80
2022/12/03 14:02:43;;;;;;;22.40;13.17;;;;;;;8.16;54.79;98658.91;7007021;28;20204;-80
2022/12/03 14:06:05;;;;;;;21.00;13.13;;;;;;;8.85;53.99;98649.91;6991685;28;20203;-78
2022/12/03 14:09:28;;;;;;;25.00;13.47;;;;;;;8.42;53.95;98607.28;6992529;28;20231;-78
2022/12/03 14:12:49;;;;;;;31.73;15.17;;;;;;;7.77;55.59;98645.09;6999719;28;20235;-80
2022/12/03 14:16:11;;;;;;;24.80;13.33;;;;;;;7.88;56.37;98627.63;7005334;28;20257;-80
2022/12/03 14:19:32;;;;;;;20.57;13.13;;;;;;;7.58;56.80;98647.56;7011733;28;20221;-80
2022/12/03 14:22:54;;;;;;;23.43;12.67;;;;;;;7.77;56.10;98634.34;7011858;28;20203;-80
2022/12/03 14:26:17;;;;;;;23.60;12.37;;;;;;;8.03;54.72;98640.00;7010822;28;20234;-81
2022/12/03 14:29:38;;;;;;;26.97;14.17;;;;;;;7.88;55.91;98646.44;7021077;28;20264;-80
2022/12/03 14:33:00;;;;;;;24.40;12.73;;;;;;;7.32;55.72;98604.38;7000668;28;20233;-80
2022/12/03 14:36:21;;;;;;;21.67;12.37;;;;;;;6.66;58.63;98648.25;6987192;28;20709;-80
2022/12/03 14:39:43;;;;;;;21.23;11.87;;;;;;;6.92;58.73;98662.03;6989538;28;20222;-80
2022/12/03 14:43:06;;;;;;;18.77;11.27;;;;;;;7.59;56.18;98663.47;6981647;28;20236;-80
2022/12/03 14:46:28;;;;;;;21.73;11.73;;;;;;;7.43;56.62;98671.75;6990558;28;20261;-80
2022/12/03 14:49:50;;;;;;;19.53;11.67;;;;;;;7.06;57.22;98660.34;6987593;28;20290;-80
2022/12/03 14:53:11;;;;;;;19.43;11.57;;;;;;;7.41;57.00;98676.47;6998189;28;20207;-80
2022/12/03 14:56:33;;;;;;;18.70;10.63;;;;;;;7.94;55.44;98667.13;7001522;28;20227;-80
2022/12/03 14:59:56;;;;;;;19.40;10.77;;;;;;;7.97;55.03;98666.78;7001511;28;20269;-80
2022/12/03 15:03:17;;;;;;;18.23;10.73;;;;;;;8.08;54.67;98667.06;6986749;28;20203;-81
2022/12/03 15:06:39;;;;;;;20.03;11.63;;;;;;;7.42;56.59;98671.97;6986121;28;20666;-79
2022/12/03 15:10:01;;;;;;;18.30;11.43;;;;;;;7.93;54.84;98670.84;6975317;28;20246;-79
2022/12/03 15:13:22;;;;;;;21.53;12.17;;;;;;;7.40;55.78;98644.47;6974196;28;20309;-79
2022/12/03 15:16:45;;;;;;;18.20;11.03;;;;;;;6.74;58.42;98669.63;6995582;28;20292;-81
2022/12/03 15:20:09;;;;;;;16.60;10.83;;;;;;;7.09;57.72;98670.69;7002219;28;20217;-79
2022/12/03 15:23:30;;;;;;;18.37;10.63;;;;;;;7.02;57.76;98665.25;7002268;28;20242;-80
2022/12/03 15:26:52;;;;;;;18.60;11.77;;;;;;;7.39;57.34;98672.31;6984461;28;20856;-80
2022/12/03 15:30:14;;;;;;;17.80;11.20;;;;;;;7.30;57.16;98673.47;6974338;28;20665;-79
2022/12/03 15:33:37;;;;;;;15.43;10.63;;;;;;;7.15;56.77;98676.16;6973854;28;20293;-80
2022/12/03 15:36:58;;;;;;;17.67;11.27;;;;;;;7.33;55.96;98660.50;6974091;28;20288;-80
2022/12/03 15:40:20;;;;;;;17.10;10.67;;;;;;;7.86;55.60;98664.59;6989596;28;20203;-82
2022/12/03 15:43:41;;;;;;;15.20;10.67;;;;;;;8.14;54.16;98662.78;6998996;28;20669;-81
2022/12/03 15:47:03;;;;;;;15.20;10.13;;;;;;;8.19;54.03;98669.25;7001663;28;20225;-82
2022/12/03 15:50:26;;;;;;;17.13;10.43;;;;;;;7.64;55.03;98668.28;7004701;28;20263;-82
2022/12/03 15:53:48;;;;;;;20.27;11.43;;;;;;;7.50;54.90;98671.84;7003964;28;20241;-81
2022/12/03 15:57:11;;;;;;;17.43;10.47;;;;;;;7.34;55.95;98643.41;6988599;28;20287;-81
2022/12/03 16:00:33;;;;;;;19.00;10.83;;;;;;;6.45;56.04;98495.53;7003554;28;20216;-81
2022/12/03 16:03:55;;;;;;;19.77;12.03;;;;;;;7.35;54.45;98596.78;7004698;28;20348;-81
2022/12/03 16:07:20;;;;;;;17.60;10.70;;;;;;;8.11;54.59;98658.66;6975537;28;20224;-81
2022/12/03 16:10:42;;;;;;;15.03;10.10;;;;;;;8.35;53.66;98662.78;6976563;28;20203;-81
2022/12/03 16:14:03;;;;;;;17.90;11.07;;;;;;;7.67;54.85;98662.53;6993550;28;20212;-80
2022/12/03 16:17:28;;;;;;;18.83;11.77;;;;;;;7.04;55.34;98584.66;6978411;28;20314;-80
2022/12/03 16:20:50;;;;;;;17.70;11.60;;;;;;;7.27;55.94;98657.72;7002726;28;20210;-81
2022/12/03 16:24:13;;;;;;;18.50;11.57;;;;;;;7.17;56.79;98655.34;7003161;28;20570;-80
2022/12/03 16:27:35;;;;;;;17.90;11.50;;;;;;;6.72;57.24;98658.22;7003490;28;20438;-81